T30 weather

Mc Kinley Field
Pearsall, Texas, United States

Public forecast

Using degrees Fahrenheit for public forecast. Weather courtesy of forecast.io.

Closest aviation weather report (METAR) to Mc Kinley Field

Closest report is Cotulla-La Salle County Airport, 22.7 nm (42.1 km) SSW. Retrieved 2020/05/30 03:53 UTC (39 minutes ago):

KCOT 300353Z AUTO 09003KT 10SM CLR 25/18 A3008 RMK AO2 SLP179 T02500183

Closest aviation forecast (TAF) to Mc Kinley Field

Closest forecast is Cotulla-La Salle County Airport, 22.7 nm (42.1 km) SSW. Retrieved 2020-05-30 00:30 UTC (4 hours ago):

TAF KCOT 292329Z 3000/3024 03007KT P6SM SCT040 OVC250 FM300400 07006KT P6SM BKN250 FM301800 07007KT P6SM SCT060 SCT250